Time;durP1;ratioP1;P1;durP2;ratioP2;P2;SDS_P1;SDS_P2;PMS_P1;PMS_P2;Temp;Humidity;BMP_temperature;BMP_pressure;BME280_temperature;BME280_humidity;BME280_pressure;Samples;Min_cycle;Max_cycle;Signal;HPM_P1;HPM_P2
2021/01/31 00:00:24;;;;;;;17.10;8.90;;;;;;;-2.37;100.00;96548.56;5023831;28;20053;-80
2021/01/31 00:02:50;;;;;;;17.40;8.93;;;;;;;-2.44;100.00;96539.25;5040378;28;20057;-81
2021/01/31 00:05:18;;;;;;;17.17;8.88;;;;;;;-2.40;100.00;96533.16;5025231;28;20149;-81
2021/01/31 00:07:45;;;;;;;17.52;8.95;;;;;;;-2.31;100.00;96558.13;5006695;28;20137;-81
2021/01/31 00:10:13;;;;;;;17.67;8.55;;;;;;;-2.42;100.00;96547.72;5024348;28;20041;-79
2021/01/31 00:12:39;;;;;;;17.63;8.48;;;;;;;-2.60;100.00;96543.69;5022330;28;20045;-80
2021/01/31 00:15:08;;;;;;;17.08;8.65;;;;;;;-2.60;100.00;96541.84;5022676;28;20095;-80
2021/01/31 00:17:34;;;;;;;18.23;9.00;;;;;;;-2.51;100.00;96528.91;5022396;28;20064;-80
2021/01/31 00:20:03;;;;;;;20.10;9.40;;;;;;;-2.59;100.00;96543.44;5004697;28;20072;-80
2021/01/31 00:22:30;;;;;;;16.40;8.50;;;;;;;-2.57;100.00;96543.19;5019559;28;20063;-80
2021/01/31 00:24:56;;;;;;;17.85;8.52;;;;;;;-2.63;100.00;96534.41;5003550;28;20056;-80
2021/01/31 00:27:24;;;;;;;17.48;9.13;;;;;;;-2.62;100.00;96536.00;5021865;28;20080;-81
2021/01/31 00:29:52;;;;;;;18.45;9.68;;;;;;;-2.64;100.00;96537.31;5039611;28;20064;-80
2021/01/31 00:32:26;;;;;;;18.50;9.60;;;;;;;-2.55;100.00;96541.84;5023207;28;20045;-80
2021/01/31 00:34:54;;;;;;;18.07;9.13;;;;;;;-2.64;100.00;96535.47;5057639;28;20094;-79
2021/01/31 00:37:21;;;;;;;17.05;9.00;;;;;;;-2.75;100.00;96533.81;5056886;28;20350;-80
2021/01/31 00:39:52;;;;;;;16.30;8.95;;;;;;;-2.69;100.00;96524.88;5041163;28;20083;-80
2021/01/31 00:42:21;;;;;;;15.95;8.60;;;;;;;-2.72;100.00;96522.72;5057562;23;20036;-80
2021/01/31 00:44:50;;;;;;;17.23;9.38;;;;;;;-2.63;100.00;96523.81;5036981;28;20025;-78
2021/01/31 00:47:21;;;;;;;16.08;8.90;;;;;;;-2.66;100.00;96512.97;5058587;28;20033;-79
2021/01/31 00:49:49;;;;;;;17.80;9.95;;;;;;;-2.50;100.00;96532.34;5056870;28;20041;-82
2021/01/31 00:52:19;;;;;;;20.15;10.13;;;;;;;-2.57;100.00;96516.69;5058863;28;20044;-81
2021/01/31 00:54:45;;;;;;;19.75;9.52;;;;;;;-2.67;100.00;96533.34;5055023;23;20041;-81
2021/01/31 00:57:11;;;;;;;20.83;9.85;;;;;;;-2.71;100.00;96528.81;5058678;28;20104;-81
2021/01/31 00:59:38;;;;;;;18.50;9.38;;;;;;;-2.65;100.00;96531.22;5062168;28;20049;-82
2021/01/31 01:02:23;;;;;;;19.02;8.98;;;;;;;-2.58;100.00;96526.47;5061610;28;20500;-82
2021/01/31 01:04:50;;;;;;;;;;;;;;;-2.62;100.00;96536.00;5061778;28;20327;-81
2021/01/31 01:07:17;;;;;;;19.40;8.82;;;;;;;-2.64;100.00;96532.81;5060883;28;19921;-83
2021/01/31 01:09:45;;;;;;;17.15;8.60;;;;;;;-2.56;100.00;96536.84;5062023;28;20052;-81
2021/01/31 01:12:12;;;;;;;18.52;9.20;;;;;;;-2.54;100.00;96538.16;5058868;28;20045;-79
2021/01/31 01:14:38;;;;;;;17.48;8.52;;;;;;;-2.82;100.00;96532.47;5058527;28;20438;-81
2021/01/31 01:17:06;;;;;;;17.48;8.65;;;;;;;-2.73;100.00;96537.00;5042656;28;20248;-82
2021/01/31 01:19:32;;;;;;;17.38;8.70;;;;;;;-2.70;100.00;96533.03;5061528;28;20045;-82
2021/01/31 01:21:58;;;;;;;18.33;9.63;;;;;;;-2.71;100.00;96519.00;5043570;28;20480;-81
2021/01/31 01:24:25;;;;;;;20.67;9.32;;;;;;;-2.54;100.00;96534.72;5065236;28;20053;-82
2021/01/31 01:26:52;;;;;;;16.38;8.77;;;;;;;-2.64;100.00;96529.38;5030218;28;20432;-81
2021/01/31 01:29:19;;;;;;;18.75;10.02;;;;;;;-2.57;100.00;96532.56;5065467;28;20052;-81
2021/01/31 01:31:46;;;;;;;17.48;8.95;;;;;;;-2.66;100.00;96534.16;5066247;28;20048;-80
2021/01/31 01:34:12;;;;;;;20.42;9.93;;;;;;;-2.58;100.00;96529.13;5047058;28;20057;-81
2021/01/31 01:36:39;;;;;;;16.42;9.10;;;;;;;-2.46;100.00;96522.81;5062669;28;20100;-80
2021/01/31 01:39:05;;;;;;;17.50;9.57;;;;;;;-2.54;100.00;96519.63;5044739;28;20063;-79
2021/01/31 01:41:36;;;;;;;18.05;9.85;;;;;;;-2.54;100.00;96516.97;5055004;28;20132;-82
2021/01/31 01:44:03;;;;;;;16.65;9.23;;;;;;;-2.48;100.00;96524.94;5077579;28;20090;-83
2021/01/31 01:46:40;;;;;;;18.85;9.65;;;;;;;-2.44;100.00;96536.59;5075693;28;20033;-81
2021/01/31 01:49:15;;;;;;;17.00;9.15;;;;;;;-2.45;100.00;96527.84;5072911;28;20117;-84
2021/01/31 01:52:01;;;;;;;18.48;8.57;;;;;;;-2.48;100.00;96530.25;5075953;28;20071;-84
2021/01/31 01:54:35;;;;;;;15.15;7.57;;;;;;;-2.48;100.00;96535.53;5073584;28;20112;-82
2021/01/31 01:57:10;;;;;;;13.60;7.68;;;;;;;-2.63;100.00;96526.47;5068141;28;20498;-82
2021/01/31 01:59:39;;;;;;;16.67;7.85;;;;;;;-2.81;100.00;96526.91;5067938;28;20048;-81
2021/01/31 02:02:14;;;;;;;14.55;7.43;;;;;;;-2.74;100.00;96540.72;5049337;28;20269;-83
2021/01/31 02:04:42;;;;;;;14.35;7.43;;;;;;;-2.88;100.00;96525.53;5067998;28;20059;-83
2021/01/31 02:07:09;;;;;;;16.48;8.00;;;;;;;-2.77;100.00;96535.94;5067493;28;20056;-83
2021/01/31 02:09:36;;;;;;;15.60;8.02;;;;;;;-2.73;100.00;96534.34;5049956;28;20060;-83
2021/01/31 02:12:05;;;;;;;17.05;8.25;;;;;;;-2.82;100.00;96532.47;5049833;28;20424;-82
2021/01/31 02:14:35;;;;;;;14.98;7.80;;;;;;;-2.82;100.00;96540.41;5067029;28;20270;-83
2021/01/31 02:17:22;;;;;;;15.02;7.68;;;;;;;-2.80;100.00;96533.00;5066778;28;20045;-83
2021/01/31 02:20:09;;;;;;;16.48;7.90;;;;;;;-2.70;100.00;96546.28;5060032;28;20099;-81
2021/01/31 02:22:41;;;;;;;16.67;8.20;;;;;;;-2.67;100.00;96545.78;5064898;28;20108;-82
2021/01/31 02:25:42;;;;;;;17.50;8.48;;;;;;;-2.79;100.00;96535.41;5046901;28;20044;-82
2021/01/31 02:28:28;;;;;;;18.17;8.18;;;;;;;-2.68;100.00;96550.28;5064199;28;20045;-81
2021/01/31 02:31:32;;;;;;;14.85;8.30;;;;;;;-2.61;100.00;96544.75;5045981;28;20052;-83
2021/01/31 02:34:23;;;;;;;14.95;8.10;;;;;;;-2.65;100.00;96543.66;5045298;28;20041;-82
2021/01/31 02:37:12;;;;;;;13.90;7.30;;;;;;;-2.78;100.00;96539.63;5064389;28;20055;-83
2021/01/31 02:39:42;;;;;;;16.27;7.82;;;;;;;-2.73;100.00;96555.53;5064716;28;20041;-82
2021/01/31 02:42:48;;;;;;;16.65;8.85;;;;;;;-2.75;100.00;96562.16;5047400;28;20051;-84
2021/01/31 02:45:27;;;;;;;11.93;6.07;;;;;;;-2.80;100.00;96562.94;5046349;28;20527;-82
2021/01/31 02:48:02;;;;;;;17.25;8.45;;;;;;;-2.83;100.00;96555.50;5047864;28;20115;-83
2021/01/31 02:50:39;;;;;;;17.10;8.50;;;;;;;-2.95;100.00;96530.28;5065778;28;20048;-81
2021/01/31 02:53:16;;;;;;;18.25;8.65;;;;;;;-2.83;100.00;96560.78;5065525;28;20056;-83
2021/01/31 02:55:52;;;;;;;16.13;8.55;;;;;;;-2.78;100.00;96560.00;5067167;28;20037;-82
2021/01/31 02:58:24;;;;;;;16.63;8.68;;;;;;;-2.89;100.00;96571.63;5069869;28;20055;-83
2021/01/31 03:00:54;;;;;;;17.63;8.63;;;;;;;-2.95;100.00;96562.03;5069697;28;20041;-80
2021/01/31 03:03:41;;;;;;;13.13;7.70;;;;;;;-3.08;100.00;96550.06;5068865;28;20049;-82
2021/01/31 03:06:23;;;;;;;17.40;7.78;;;;;;;-3.07;100.00;96556.91;5067896;28;20393;-84
2021/01/31 03:08:57;;;;;;;18.95;9.25;;;;;;;-3.12;100.00;96540.25;5067321;28;20070;-83
2021/01/31 03:11:42;;;;;;;15.02;8.43;;;;;;;-3.16;100.00;96555.81;5072691;28;20056;-85
2021/01/31 03:14:19;;;;;;;15.45;7.78;;;;;;;-3.14;100.00;96564.28;5058369;28;20033;-84
2021/01/31 03:16:57;;;;;;;15.25;7.90;;;;;;;-3.10;100.00;96556.66;5057703;28;20040;-84
2021/01/31 03:19:44;;;;;;;16.55;7.97;;;;;;;-3.13;100.00;96562.44;5070519;28;20060;-80
2021/01/31 03:22:20;;;;;;;16.60;8.77;;;;;;;-3.28;100.00;96540.09;5046370;28;20063;-81
2021/01/31 03:24:57;;;;;;;17.23;7.97;;;;;;;-3.13;100.00;96568.53;5061554;28;20475;-82
2021/01/31 03:27:33;;;;;;;14.63;7.50;;;;;;;-3.31;100.00;96558.34;5064651;28;20533;-81
2021/01/31 03:29:59;;;;;;;18.52;8.82;;;;;;;-3.37;100.00;96570.75;5064392;28;20045;-79
2021/01/31 03:32:38;;;;;;;14.27;7.80;;;;;;;-3.40;100.00;96563.31;5063928;28;20041;-83
2021/01/31 03:35:13;;;;;;;18.13;8.70;;;;;;;-3.49;100.00;96572.78;5067717;28;20067;-82
2021/01/31 03:38:00;;;;;;;17.83;8.68;;;;;;;-3.54;100.00;96556.84;5051248;28;20048;-83
2021/01/31 03:40:28;;;;;;;17.38;8.85;;;;;;;-3.55;100.00;96563.19;5068226;28;20057;-83
2021/01/31 03:42:55;;;;;;;17.95;8.40;;;;;;;-3.67;100.00;96556.47;5064982;28;20048;-83
2021/01/31 03:45:35;;;;;;;16.25;8.27;;;;;;;-3.61;100.00;96560.75;5064097;28;20048;-82
2021/01/31 03:48:10;;;;;;;17.65;8.93;;;;;;;-3.70;100.00;96565.69;5063438;28;20067;-79
2021/01/31 03:50:37;;;;;;;18.33;9.43;;;;;;;-3.78;100.00;96551.09;5047535;28;20045;-83
2021/01/31 03:53:04;;;;;;;19.08;9.68;;;;;;;-3.78;100.00;96569.59;5046837;28;20052;-83
2021/01/31 03:55:30;;;;;;;19.00;10.13;;;;;;;-3.84;100.00;96575.06;5065143;28;20044;-82
2021/01/31 03:58:01;;;;;;;19.65;9.73;;;;;;;-3.83;100.00;96590.69;5066061;28;20037;-83
2021/01/31 04:00:31;;;;;;;19.30;10.13;;;;;;;-3.80;100.00;96587.56;5065495;28;20045;-81
2021/01/31 04:03:13;;;;;;;19.13;10.15;;;;;;;-3.92;100.00;96588.72;5048220;28;20044;-83
2021/01/31 04:05:50;;;;;;;22.88;9.80;;;;;;;-4.04;100.00;96586.25;5035070;28;20033;-82
2021/01/31 04:08:18;;;;;;;20.15;10.50;;;;;;;-4.03;100.00;96594.97;5071951;28;20045;-80
2021/01/31 04:10:45;;;;;;;25.58;11.90;;;;;;;-4.09;100.00;96594.13;5072045;28;20048;-81
2021/01/31 04:13:12;;;;;;;25.23;11.45;;;;;;;-4.28;100.00;96590.19;5056982;28;20049;-80
2021/01/31 04:15:43;;;;;;;21.85;10.88;;;;;;;-4.16;100.00;96604.09;5071844;28;20048;-80
2021/01/31 04:18:11;;;;;;;24.80;12.43;;;;;;;-4.25;100.00;96616.13;5073556;28;20059;-79
2021/01/31 04:20:37;;;;;;;25.15;11.93;;;;;;;-4.31;100.00;96616.31;5054142;28;20053;-79
2021/01/31 04:23:04;;;;;;;23.95;10.98;;;;;;;-4.30;100.00;96599.41;5064432;28;20044;-80
2021/01/31 04:25:32;;;;;;;22.52;10.43;;;;;;;-4.35;100.00;96605.44;5060937;28;20045;-81
2021/01/31 04:28:15;;;;;;;20.02;10.32;;;;;;;-4.43;100.00;96604.00;5060183;28;20102;-82
2021/01/31 04:30:46;;;;;;;20.17;10.80;;;;;;;-4.55;100.00;96589.34;5060178;28;20073;-82
2021/01/31 04:33:14;;;;;;;22.25;9.93;;;;;;;-4.82;100.00;96602.44;5059354;28;20041;-79
2021/01/31 04:35:41;;;;;;;20.58;10.27;;;;;;;-4.83;100.00;96602.69;5058628;28;20037;-82
2021/01/31 04:38:08;;;;;;;22.10;10.85;;;;;;;-5.10;100.00;96592.81;5059812;28;20045;-82
2021/01/31 04:40:36;;;;;;;22.23;9.70;;;;;;;-5.51;100.00;96601.13;5040340;28;20045;-82
2021/01/31 04:43:05;;;;;;;20.00;9.75;;;;;;;-5.59;100.00;96595.44;5041263;28;20045;-83
2021/01/31 04:45:36;;;;;;;17.13;8.38;;;;;;;-5.71;100.00;96609.50;5039873;28;20083;-84
2021/01/31 04:48:02;;;;;;;20.00;9.70;;;;;;;-5.90;100.00;96605.47;5060798;28;20041;-82
2021/01/31 04:50:35;;;;;;;25.13;11.02;;;;;;;-5.78;100.00;96597.50;5051954;28;20033;-83
2021/01/31 04:53:21;;;;;;;25.15;11.32;;;;;;;-5.81;100.00;96609.31;5068998;28;20051;-84
2021/01/31 04:56:09;;;;;;;23.25;10.73;;;;;;;-6.02;100.00;96599.47;5069269;28;20041;-83
2021/01/31 04:58:43;;;;;;;23.60;10.63;;;;;;;-6.11;100.00;96603.50;5066868;28;20482;-85
2021/01/31 05:01:26;;;;;;;24.65;10.98;;;;;;;-6.18;100.00;96621.28;5068639;28;20105;-84
2021/01/31 05:04:00;;;;;;;22.90;10.40;;;;;;;-6.16;100.00;96621.03;5063769;28;20132;-82
2021/01/31 05:06:50;;;;;;;26.95;11.15;;;;;;;-6.36;100.00;96622.25;5064193;28;20052;-83
2021/01/31 05:09:25;;;;;;;27.35;11.18;;;;;;;-6.51;100.00;96623.78;5048783;28;20112;-83
2021/01/31 05:12:17;;;;;;;27.13;11.45;;;;;;;-6.57;100.00;96633.41;5064121;28;20040;-82
2021/01/31 05:15:08;;;;;;;24.95;11.48;;;;;;;-6.79;100.00;96619.25;5061679;28;20131;-83
2021/01/31 05:17:34;;;;;;;26.23;11.40;;;;;;;-6.76;100.00;96626.66;5060855;28;20041;-82
2021/01/31 05:20:04;;;;;;;27.50;11.57;;;;;;;-6.85;100.00;96630.69;5060491;28;20051;-85
2021/01/31 05:22:36;;;;;;;28.25;10.85;;;;;;;-6.79;100.00;96636.88;5060582;28;20071;-83
2021/01/31 05:25:05;;;;;;;26.85;12.02;;;;;;;-6.80;100.00;96628.16;5044548;28;20232;-83
2021/01/31 05:27:34;;;;;;;27.77;12.13;;;;;;;-6.91;100.00;96605.28;5062862;28;20065;-83
2021/01/31 05:30:00;;;;;;;36.00;12.70;;;;;;;-6.71;100.00;96634.66;5044852;28;20051;-84
2021/01/31 05:32:27;;;;;;;28.23;12.27;;;;;;;-6.63;100.00;96641.44;5062828;28;20036;-82
2021/01/31 05:34:59;;;;;;;25.52;11.25;;;;;;;-6.95;100.00;96622.56;5029815;28;20041;-83
2021/01/31 05:37:28;;;;;;;29.20;12.25;;;;;;;-6.76;100.00;96641.66;5064067;28;20068;-84
2021/01/31 05:40:07;;;;;;;28.08;10.75;;;;;;;-6.97;100.00;96622.78;5063188;28;20428;-83
2021/01/31 05:42:41;;;;;;;27.65;11.63;;;;;;;-7.22;100.00;96639.81;5063209;28;20141;-82
2021/01/31 05:45:29;;;;;;;;;;;;;;;-7.32;100.00;96642.22;5063961;28;20041;-83
2021/01/31 05:47:58;;;;;;;24.42;10.05;;;;;;;-7.67;100.00;96642.16;5064483;28;19943;-84
2021/01/31 05:50:35;;;;;;;26.83;10.98;;;;;;;-7.49;100.00;96647.34;5031085;28;20069;-84
2021/01/31 05:53:37;;;;;;;25.35;11.10;;;;;;;-7.56;100.00;96638.72;5066316;28;20049;-84
2021/01/31 05:56:27;;;;;;;26.55;12.00;;;;;;;-7.27;100.00;96647.59;5037219;28;20049;-84
2021/01/31 05:59:02;;;;;;;26.55;11.07;;;;;;;-7.27;100.00;96650.22;5027595;28;20053;-82
2021/01/31 06:01:28;;;;;;;29.67;11.27;;;;;;;-7.50;100.00;96652.78;5043558;28;20127;-83
2021/01/31 06:04:13;;;;;;;30.10;11.45;;;;;;;-7.56;100.00;96649.25;5028128;28;20140;-85
2021/01/31 06:06:45;;;;;;;26.52;11.15;;;;;;;-7.49;100.00;96662.28;5067652;28;20113;-84
2021/01/31 06:09:19;;;;;;;27.63;10.90;;;;;;;-7.51;100.00;96644.13;5072019;28;20467;-85
2021/01/31 06:11:48;;;;;;;28.50;11.77;;;;;;;-7.59;100.00;96649.72;5068445;28;20049;-82
2021/01/31 06:14:14;;;;;;;26.05;11.63;;;;;;;-7.44;100.00;96660.59;5053607;28;20049;-86
2021/01/31 06:16:43;;;;;;;23.63;10.20;;;;;;;-7.51;100.00;96657.28;5071117;28;20411;-84
2021/01/31 06:19:18;;;;;;;27.40;11.05;;;;;;;-7.62;100.00;96644.91;5051873;28;20389;-83
2021/01/31 06:21:46;;;;;;;25.58;11.48;;;;;;;-7.68;100.00;96640.53;5071941;28;20097;-85
2021/01/31 06:24:27;;;;;;;23.20;10.48;;;;;;;-7.63;100.00;96645.91;5078255;28;20055;-86
2021/01/31 06:26:57;;;;;;;28.00;12.10;;;;;;;-7.63;100.00;96657.22;5061782;28;20057;-85
2021/01/31 06:29:42;;;;;;;27.08;10.88;;;;;;;-7.87;100.00;96649.50;5061980;28;20052;-84
2021/01/31 06:32:15;;;;;;;23.05;10.15;;;;;;;-7.80;100.00;96661.53;5048257;28;20049;-82
2021/01/31 06:34:52;;;;;;;27.45;11.43;;;;;;;-7.80;100.00;96661.53;5064381;28;20203;-83
2021/01/31 06:37:50;;;;;;;25.52;11.30;;;;;;;-7.88;100.00;96668.91;5046979;28;20242;-83
2021/01/31 06:40:36;;;;;;;30.58;11.20;;;;;;;-7.97;100.00;96655.28;5065518;28;20041;-82
2021/01/31 06:43:31;;;;;;;26.92;10.52;;;;;;;-8.01;100.00;96675.13;5092998;22;20112;-81
2021/01/31 06:46:03;;;;;;;23.52;10.48;;;;;;;-8.31;100.00;96677.75;5094638;28;20036;-80
2021/01/31 06:48:40;;;;;;;25.60;9.93;;;;;;;-8.38;100.00;96677.03;5076776;28;20650;-80
2021/01/31 06:51:26;;;;;;;29.17;11.77;;;;;;;-8.22;100.00;96675.59;5097357;28;20052;-80
2021/01/31 06:54:20;;;;;;;28.88;11.98;;;;;;;-8.45;100.00;96676.31;5062579;28;20045;-80
2021/01/31 06:57:09;;;;;;;29.70;10.93;;;;;;;-8.28;100.00;96669.44;5096421;28;20040;-81
2021/01/31 06:59:54;;;;;;;31.52;12.13;;;;;;;-8.14;100.00;96669.25;5088258;28;20039;-81
2021/01/31 07:02:32;;;;;;;30.80;12.70;;;;;;;-8.52;100.00;96674.78;5095368;28;20044;-80
2021/01/31 07:05:35;;;;;;;29.02;10.82;;;;;;;-8.63;100.00;96680.75;5097891;28;20067;-81
2021/01/31 07:08:39;;;;;;;28.95;11.70;;;;;;;-8.30;100.00;96686.41;5080336;28;20051;-81
2021/01/31 07:11:18;;;;;;;31.42;12.45;;;;;;;-8.14;100.00;96685.00;5098310;28;20051;-80
2021/01/31 07:14:16;;;;;;;34.90;13.10;;;;;;;-7.98;100.00;96690.47;5079505;28;20566;-81
2021/01/31 07:16:49;;;;;;;29.75;12.48;;;;;;;-8.33;100.00;96698.16;5064814;28;20404;-82
2021/01/31 07:19:45;;;;;;;28.38;12.00;;;;;;;-8.25;100.00;96697.03;5093639;28;20051;-81
2021/01/31 07:22:17;;;;;;;28.27;11.27;;;;;;;-8.36;100.00;96687.31;5093669;28;20054;-80
2021/01/31 07:24:52;;;;;;;29.88;11.88;;;;;;;-8.37;100.00;96702.25;5077982;28;20058;-81
2021/01/31 07:27:29;;;;;;;31.55;12.85;;;;;;;-8.19;100.00;96705.84;5078260;28;20063;-80
2021/01/31 07:30:27;;;;;;;35.60;12.95;;;;;;;-7.99;100.00;96709.84;5096421;28;20058;-80
2021/01/31 07:33:18;;;;;;;33.00;13.77;;;;;;;-7.94;100.00;96702.09;5079795;28;20123;-80
2021/01/31 07:36:02;;;;;;;32.22;12.43;;;;;;;-7.79;100.00;96694.63;5094120;28;20043;-80
2021/01/31 07:38:44;;;;;;;32.05;12.90;;;;;;;-7.73;100.00;96699.00;5077977;28;20058;-80
2021/01/31 07:41:14;;;;;;;30.67;13.45;;;;;;;-7.74;100.00;96694.75;5096128;28;20052;-80
2021/01/31 07:43:43;;;;;;;33.63;14.98;;;;;;;-7.55;100.00;96692.09;5078752;28;20370;-80
2021/01/31 07:46:13;;;;;;;31.42;13.57;;;;;;;-7.48;100.00;96698.84;5077228;28;20085;-79
2021/01/31 07:48:45;;;;;;;32.30;12.98;;;;;;;-7.31;100.00;96697.19;5097334;28;20054;-80
2021/01/31 07:51:18;;;;;;;28.75;12.75;;;;;;;-7.24;100.00;96690.00;5097772;28;20047;-80
2021/01/31 07:53:45;;;;;;;32.20;12.88;;;;;;;-7.11;100.00;96696.88;5079683;28;20048;-79
2021/01/31 07:56:37;;;;;;;33.08;13.52;;;;;;;-6.96;100.00;96692.78;5061079;28;20044;-80
2021/01/31 07:59:09;;;;;;;34.15;13.68;;;;;;;-6.84;100.00;96684.09;5077471;28;20391;-80
2021/01/31 08:01:42;;;;;;;34.90;14.60;;;;;;;-6.63;100.00;96688.78;5094210;28;20556;-80
2021/01/31 08:04:18;;;;;;;39.65;15.95;;;;;;;-6.29;100.00;96687.94;5095079;28;20044;-80
2021/01/31 08:06:46;;;;;;;40.97;16.30;;;;;;;-6.10;100.00;96699.13;5097236;28;20067;-80
2021/01/31 08:09:28;;;;;;;37.60;15.65;;;;;;;-5.96;100.00;96689.94;5097490;28;20055;-79
2021/01/31 08:12:07;;;;;;;37.20;16.23;;;;;;;-5.77;100.00;96699.22;5092652;28;20048;-80
2021/01/31 08:15:11;;;;;;;34.53;14.65;;;;;;;-5.68;100.00;96693.31;5090826;28;20051;-80
2021/01/31 08:17:53;;;;;;;30.10;14.23;;;;;;;-5.54;100.00;96706.22;5091345;28;20044;-79
2021/01/31 08:20:29;;;;;;;33.92;14.77;;;;;;;-5.27;100.00;96694.88;5091331;28;20040;-81
2021/01/31 08:22:56;;;;;;;;;;;;;;;-5.18;100.00;96696.06;5076831;28;20085;-80
2021/01/31 08:25:26;;;;;;;32.13;13.63;;;;;;;-4.98;100.00;96705.38;5095186;28;19920;-79
2021/01/31 08:28:01;;;;;;;35.28;14.80;;;;;;;-4.82;100.00;96700.06;5075730;28;20047;-79
2021/01/31 08:30:40;;;;;;;24.00;11.38;;;;;;;-4.64;100.00;96694.56;5093674;28;20101;-79
2021/01/31 08:33:31;;;;;;;40.33;15.77;;;;;;;-4.23;100.00;96679.28;5092821;28;20675;-79
2021/01/31 08:36:18;;;;;;;33.95;15.80;;;;;;;-3.68;100.00;96682.56;5089258;28;20043;-78
2021/01/31 08:38:51;;;;;;;30.60;14.43;;;;;;;-2.95;100.00;96679.31;5059322;28;20059;-79
2021/01/31 08:41:29;;;;;;;28.85;13.60;;;;;;;-1.85;100.00;96675.72;5076322;28;20280;-80
2021/01/31 08:44:17;;;;;;;28.70;13.35;;;;;;;-0.97;100.00;96674.59;5053747;28;20055;-78
2021/01/31 08:46:57;;;;;;;27.83;13.88;;;;;;;-1.32;100.00;96662.06;5050725;28;20032;-76
2021/01/31 08:49:24;;;;;;;25.42;12.82;;;;;;;-0.38;100.00;96668.72;5066351;28;20044;-77
2021/01/31 08:52:04;;;;;;;24.98;12.15;;;;;;;-0.18;100.00;96658.84;5070016;28;20036;-77
2021/01/31 08:54:30;;;;;;;22.55;11.45;;;;;;;0.28;100.00;96656.03;5068546;28;20056;-76
2021/01/31 08:56:56;;;;;;;22.45;11.32;;;;;;;0.91;100.00;96655.13;5068920;28;20036;-76
2021/01/31 08:59:41;;;;;;;24.08;11.05;;;;;;;2.30;100.00;96657.78;5076621;28;20043;-80
2021/01/31 09:02:14;;;;;;;;;;;;;;;2.81;100.00;96656.06;5093987;28;20040;-79
2021/01/31 09:04:50;;;;;;;22.00;11.15;;;;;;;3.39;100.00;96653.00;5079417;28;19920;-80
2021/01/31 09:07:37;;;;;;;20.92;10.55;;;;;;;3.93;100.00;96661.16;5078698;28;20040;-79
2021/01/31 09:10:16;;;;;;;20.13;10.75;;;;;;;4.37;100.00;96658.69;5096665;28;20059;-80
2021/01/31 09:12:43;;;;;;;22.33;11.20;;;;;;;4.28;100.00;96654.34;5102329;28;20154;-80
2021/01/31 09:15:25;;;;;;;22.67;11.60;;;;;;;3.75;98.96;96648.63;5093261;28;20499;-81
2021/01/31 09:18:08;;;;;;;21.10;11.30;;;;;;;3.83;100.00;96647.16;5074952;28;20047;-79
2021/01/31 09:20:34;;;;;;;22.13;11.50;;;;;;;4.36;95.05;96656.31;5075426;28;20048;-81
2021/01/31 09:23:07;;;;;;;22.63;12.45;;;;;;;3.05;100.00;96656.75;5075644;28;20040;-80
2021/01/31 09:25:36;;;;;;;26.27;13.55;;;;;;;4.24;86.95;96658.69;5094380;28;20077;-80
2021/01/31 09:28:24;;;;;;;22.40;13.20;;;;;;;5.01;92.58;96662.13;5093704;28;20539;-80
2021/01/31 09:30:58;;;;;;;18.25;11.02;;;;;;;2.07;100.00;96655.91;5096376;28;20054;-79
2021/01/31 09:33:32;;;;;;;18.92;11.02;;;;;;;4.46;100.00;96660.66;5104289;28;20102;-80
2021/01/31 09:36:24;;;;;;;18.23;10.73;;;;;;;5.46;92.08;96657.59;5081757;28;20048;-80
2021/01/31 09:38:56;;;;;;;20.52;11.38;;;;;;;4.06;96.41;96649.66;5080483;28;20113;-80
2021/01/31 09:41:25;;;;;;;19.45;11.02;;;;;;;4.23;95.39;96654.44;5079721;28;20075;-82
2021/01/31 09:43:57;;;;;;;19.08;11.52;;;;;;;5.48;81.11;96644.66;5080075;28;20117;-81
2021/01/31 09:46:25;;;;;;;19.00;10.88;;;;;;;6.04;69.32;96644.84;5105806;28;20070;-81
2021/01/31 09:49:05;;;;;;;18.58;10.52;;;;;;;5.26;95.41;96652.72;5103505;28;20560;-81
2021/01/31 09:51:32;;;;;;;17.65;9.73;;;;;;;6.78;66.30;96637.63;5080572;28;20056;-82
2021/01/31 09:54:19;;;;;;;18.50;9.18;;;;;;;7.46;56.29;96636.81;5084270;28;20067;-80
2021/01/31 09:57:02;;;;;;;17.25;9.40;;;;;;;7.63;54.98;96640.63;5099578;28;20058;-80
2021/01/31 09:59:34;;;;;;;18.90;9.43;;;;;;;8.50;53.07;96648.91;5079790;28;20609;-81
2021/01/31 10:02:11;;;;;;;14.88;9.13;;;;;;;8.30;53.21;96648.84;5079854;28;20068;-82
2021/01/31 10:04:41;;;;;;;16.75;9.07;;;;;;;8.78;50.38;96641.91;5100739;28;20471;-82
2021/01/31 10:07:13;;;;;;;18.20;9.10;;;;;;;7.28;53.15;96634.47;5060356;28;20143;-82
2021/01/31 10:09:46;;;;;;;17.45;9.75;;;;;;;6.79;55.25;96639.19;5094368;28;20499;-82
2021/01/31 10:12:32;;;;;;;18.50;10.23;;;;;;;6.28;54.83;96645.25;5078535;28;20066;-82
2021/01/31 10:15:07;;;;;;;19.85;11.05;;;;;;;7.69;54.14;96650.88;5093306;28;20070;-81
2021/01/31 10:17:44;;;;;;;21.13;11.50;;;;;;;5.05;57.99;96633.63;5070795;28;20036;-82
2021/01/31 10:20:29;;;;;;;17.73;9.88;;;;;;;6.37;60.66;96642.59;5061338;28;20595;-82
2021/01/31 10:23:12;;;;;;;15.48;9.63;;;;;;;6.36;58.23;96637.53;5081282;28;20090;-83
2021/01/31 10:25:44;;;;;;;15.88;9.75;;;;;;;6.08;59.19;96640.44;5085760;28;20520;-82
2021/01/31 10:28:13;;;;;;;16.45;9.48;;;;;;;7.08;56.23;96638.59;5085485;28;20047;-84
2021/01/31 10:30:50;;;;;;;17.15;9.77;;;;;;;6.48;54.88;96635.81;5077813;28;20376;-82
2021/01/31 10:33:43;;;;;;;16.83;9.55;;;;;;;7.60;51.60;96630.47;5076419;28;20079;-82
2021/01/31 10:36:25;;;;;;;14.32;9.02;;;;;;;7.99;49.26;96622.94;5081301;28;20036;-82
2021/01/31 10:38:55;;;;;;;16.52;9.48;;;;;;;8.51;52.77;96628.91;5096612;28;20040;-82
2021/01/31 10:41:24;;;;;;;17.77;10.40;;;;;;;7.41;55.13;96625.44;5098933;28;20040;-82
2021/01/31 10:44:09;;;;;;;19.02;9.60;;;;;;;7.19;50.38;96622.94;5062411;28;20094;-82
2021/01/31 10:46:38;;;;;;;15.35;9.73;;;;;;;9.56;46.25;96623.19;5059507;28;20036;-83
2021/01/31 10:49:07;;;;;;;16.10;9.38;;;;;;;9.89;45.70;96615.03;5077204;28;20032;-84
2021/01/31 10:51:39;;;;;;;17.25;9.35;;;;;;;10.04;48.26;96609.78;5077525;28;20139;-82
2021/01/31 10:54:09;;;;;;;15.68;9.82;;;;;;;8.16;47.54;96612.06;5060905;28;20052;-81
2021/01/31 10:56:40;;;;;;;20.60;9.77;;;;;;;5.75;54.19;96604.25;5065067;28;20040;-81
2021/01/31 10:59:07;;;;;;;16.15;9.70;;;;;;;7.80;52.73;96610.94;5067855;28;20054;-81
2021/01/31 11:01:42;;;;;;;14.77;9.32;;;;;;;9.13;47.16;96604.69;5068361;28;20044;-81
2021/01/31 11:04:11;;;;;;;16.17;9.23;;;;;;;8.48;50.67;96602.59;5073482;28;20090;-80
2021/01/31 11:06:38;;;;;;;16.33;9.57;;;;;;;9.27;47.99;96604.38;5062391;28;20071;-81
2021/01/31 11:09:05;;;;;;;13.95;8.63;;;;;;;10.01;47.79;96594.22;5046366;28;20049;-80
2021/01/31 11:11:32;;;;;;;15.70;9.30;;;;;;;10.27;47.71;96593.16;5064665;28;20045;-81
2021/01/31 11:13:59;;;;;;;15.05;8.63;;;;;;;11.00;44.05;96591.16;5043719;28;20595;-81
2021/01/31 11:16:25;;;;;;;14.43;8.88;;;;;;;11.98;42.40;96595.03;5053903;28;20088;-83
2021/01/31 11:18:52;;;;;;;18.73;9.30;;;;;;;11.08;41.02;96588.31;5044818;28;20055;-82
2021/01/31 11:21:23;;;;;;;17.45;9.38;;;;;;;10.45;42.18;96584.47;5045809;28;20391;-83
2021/01/31 11:23:56;;;;;;;13.98;8.57;;;;;;;11.41;42.41;96587.31;5046505;28;20071;-83
2021/01/31 11:26:24;;;;;;;14.05;9.05;;;;;;;12.18;41.98;96592.06;5062596;28;20037;-83
2021/01/31 11:28:55;;;;;;;14.30;8.50;;;;;;;11.94;38.82;96586.81;5045427;28;20041;-83
2021/01/31 11:31:24;;;;;;;14.00;8.80;;;;;;;12.37;39.61;96586.72;5079016;28;20044;-83
2021/01/31 11:33:54;;;;;;;13.63;8.20;;;;;;;11.40;40.13;96572.16;5065382;28;20059;-83
2021/01/31 11:36:21;;;;;;;17.33;8.98;;;;;;;9.04;42.13;96571.53;5087397;28;20044;-83
2021/01/31 11:38:47;;;;;;;16.73;8.45;;;;;;;11.28;41.59;96590.03;5076317;28;20074;-83
2021/01/31 11:41:15;;;;;;;13.93;8.80;;;;;;;9.63;44.16;96587.50;5096262;28;20040;-84
2021/01/31 11:43:42;;;;;;;15.00;8.35;;;;;;;10.89;42.77;96579.22;5079054;28;20062;-83
2021/01/31 11:46:09;;;;;;;13.05;8.80;;;;;;;11.20;40.14;96572.00;5079789;28;20040;-84
2021/01/31 11:48:36;;;;;;;12.65;8.43;;;;;;;11.46;38.21;96576.97;5089157;28;20036;-82
2021/01/31 11:51:04;;;;;;;13.00;8.82;;;;;;;11.52;43.18;96572.91;5082171;28;20043;-83